Adin, CA

11:37 AM PDT on September 17, 2014 (GMT -0700)
KCAMCART2 | Change Station
CLOSE
Current Station
Personal Weather Station
Location: Lookout, CA
Elevation: 4265 ft
Nearby Weather Stations
Active Advisory: Fire Weather Warning

Elev 4265 ft 41.23 °N, 121.22 °W | Updated 5 seconds ago

Partly Cloudy
Partly Cloudy
78.5 °F
Feels Like 77 °F
N
0.0
Wind Variable Wind from North
Gusts 0.0 mph

Today
High -- | Low -- °F
--% Chance of Precip.
Yesterday
High -- | Low -- °F
Precip. -- in
6:46 AM 7:09 PM
Waning Crescent, 34% visible
Pressure 29.81 in
Visibility 8.0 miles
Clouds Clear
Heat Index 77 °F
Dew Point 24 °F
Humidity 14%
Rainfall 0.00 in
Snow Depth 0 in , 0 in , 0 in
UV 4 out of 12
Pollen 6.60 out of 12
Air Quality Not available.
Flu Activity Not available.
METAR KAAT 171655Z AUTO 16010G16KT 8SM CLR 25/00 A2994 RMK AO2 SLP093 T02500000

More Conditions Fewer Conditions

Pressure 29.81 in
Visibility 8.0 miles
Clouds Clear
Heat Index 77 °F
Dew Point 24 °F
Humidity 14%
Rainfall 0.00 in
Snow Depth 0 in , 0 in , 0 in
UV 4 out of 12
Pollen 6.60 out of 12
Air Quality Not available.
Flu Activity Not available.
METAR KAAT 171655Z AUTO 16010G16KT 8SM CLR 25/00 A2994 RMK AO2 SLP093 T02500000

More Conditions Fewer Conditions

10-Day Weather Forecast

Almanac

Astronomy

Sep. 17, 2014 Rise Set
Actual Time 6:46 AM PDT 7:09 PM PDT
Civil Twilight 6:18 AM PDT 7:36 PM PDT
Nautical Twilight 5:46 AM PDT 8:09 PM PDT
Astronomical Twilight 5:12 AM PDT 8:42 PM PDT
Moon 12:48 AM PDT 3:25 PM PDT
Length of Visible Light 13h 18m
Length of Day
12h 23m
Tomorrow will be 2m 43s shorter.
Waning Crescent, 34% of the Moon is Illuminated
Today
Waning Crescent
Sep 24
New
Oct 1
First Quarter
Oct 8
Full
Oct 15
Last Quarter

Today's Extremes

State Highs State Lows

Community

WunderPhotos

Upload Photos

1,754,127 photos uploaded!

WunderBlogs® & News

Nearby

Snow Depth

Station Depth Elevation
Summit Meadow 1 in 9122 ft
Tahoe City Cross 0 in 6750 ft
Leavitt Lake 0 in 9400 ft
Adin Mountain 0 in 6200 ft
Spratt Creek 0 in 6200 ft

Earthquake Activity

City Distance Mag. Time & Date
Lakeview, Oregon 80 miles 2.5 10:14 AM PDT
2014-09-17
Lakeview, Oregon 82 miles 2.6 1:34 PM PDT
2014-09-16
Lakeview, Oregon 82 miles 2.5 4:10 AM PDT
2014-09-16
Lakeview, Oregon 82 miles 3.0 4:23 PM PDT
2014-09-15
Minimum magnitude displayed is 2.5.

Coastal Water Temperatures

Place Temperature
No Stations Reporting

Nearby Weather Stations